Time;durP1;ratioP1;P1;durP2;ratioP2;P2;SDS_P1;SDS_P2;PMS_P1;PMS_P2;Temp;Humidity;BMP_temperature;BMP_pressure;BME280_temperature;BME280_humidity;BME280_pressure;Samples;Min_cycle;Max_cycle;Signal;HPM_P1;HPM_P2
2022/04/10 00:03:28;;;;;;;1.25;1.00;;;19.80;67.50;;;;;;7839207;28;20746;-52
2022/04/10 00:07:13;;;;;;;0.95;0.80;;;19.80;67.10;;;;;;7839230;28;20679;-54
2022/04/10 00:10:59;;;;;;;0.90;0.70;;;19.70;66.70;;;;;;7838841;28;20178;-53
2022/04/10 00:14:45;;;;;;;1.88;0.77;;;19.70;67.10;;;;;;7838795;28;20213;-56
2022/04/10 00:18:31;;;;;;;2.90;0.70;;;19.70;68.10;;;;;;7838920;28;20170;-54
2022/04/10 00:22:17;;;;;;;5.53;1.00;;;19.70;67.60;;;;;;7838172;28;20186;-55
2022/04/10 00:26:02;;;;;;;1.90;1.00;;;19.60;67.80;;;;;;7838558;28;20259;-54
2022/04/10 00:29:48;;;;;;;2.55;0.77;;;19.60;67.10;;;;;;7838261;28;20186;-53
2022/04/10 00:33:33;;;;;;;0.68;0.60;;;19.60;67.40;;;;;;7838298;28;20568;-55
2022/04/10 00:37:19;;;;;;;2.20;0.70;;;19.60;66.60;;;;;;7838394;28;20658;-54
2022/04/10 00:41:05;;;;;;;0.80;0.77;;;19.60;67.00;;;;;;7838176;28;20177;-54
2022/04/10 00:44:51;;;;;;;0.68;0.68;;;19.60;66.90;;;;;;7838447;28;20288;-53
2022/04/10 00:48:36;;;;;;;1.17;0.80;;;19.50;66.70;;;;;;7837656;28;20186;-53
2022/04/10 00:52:22;;;;;;;0.50;0.50;;;19.50;66.70;;;;;;7837799;28;20275;-53
2022/04/10 00:56:08;;;;;;;1.30;0.68;;;19.50;67.10;;;;;;7838013;28;20871;-53
2022/04/10 00:59:54;;;;;;;0.70;0.68;;;19.50;67.20;;;;;;7837731;28;20170;-51
2022/04/10 01:03:39;;;;;;;0.63;0.57;;;19.50;66.90;;;;;;7837900;28;20252;-53
2022/04/10 01:07:27;;;;;;;0.60;0.60;;;19.50;67.40;;;;;;7837785;28;20186;-52
2022/04/10 01:11:14;;;;;;;0.93;0.52;;;19.40;66.80;;;;;;7837846;28;20181;-54
2022/04/10 01:15:01;;;;;;;0.73;0.70;;;19.40;66.80;;;;;;7838009;28;20222;-53
2022/04/10 01:18:47;;;;;;;0.70;0.65;;;19.40;66.10;;;;;;7837898;28;20170;-53
2022/04/10 01:22:34;;;;;;;1.67;0.70;;;19.30;65.70;;;;;;7837656;28;20805;-53
2022/04/10 01:26:24;;;;;;;0.75;0.50;;;19.40;66.40;;;;;;7837741;28;20225;-52
2022/04/10 01:30:12;;;;;;;0.70;0.50;;;19.30;66.20;;;;;;7837467;28;20175;-53
2022/04/10 01:34:02;;;;;;;1.83;0.85;;;19.30;66.90;;;;;;7837839;28;20210;-53
2022/04/10 01:37:48;;;;;;;0.70;0.55;;;19.30;66.40;;;;;;7843700;28;20257;-54
2022/04/10 01:41:37;;;;;;;0.80;0.70;;;19.30;66.90;;;;;;7843115;28;20663;-52
2022/04/10 01:45:22;;;;;;;0.70;0.60;;;19.30;66.60;;;;;;7843226;28;20212;-55
2022/04/10 01:49:08;;;;;;;1.10;0.70;;;19.20;67.00;;;;;;7843069;28;20175;-53
2022/04/10 01:52:53;;;;;;;1.02;0.60;;;19.30;66.80;;;;;;7842953;28;20240;-53
2022/04/10 01:56:39;;;;;;;1.10;0.50;;;19.20;65.80;;;;;;7842975;28;20201;-54
2022/04/10 02:00:24;;;;;;;1.45;0.70;;;19.20;66.30;;;;;;7842668;28;20167;-54
2022/04/10 02:04:10;;;;;;;0.63;0.50;;;19.20;66.80;;;;;;7842815;28;20194;-54
2022/04/10 02:07:55;;;;;;;0.95;0.70;;;19.10;66.60;;;;;;7842837;28;20185;-54
2022/04/10 02:11:41;;;;;;;0.50;0.50;;;19.10;66.10;;;;;;7842310;28;20178;-53
2022/04/10 02:15:26;;;;;;;1.02;0.50;;;19.10;66.10;;;;;;7842440;28;20201;-53
2022/04/10 02:19:11;;;;;;;0.73;0.60;;;19.10;66.90;;;;;;7842085;28;20686;-55
2022/04/10 02:22:57;;;;;;;0.85;0.50;;;19.10;66.20;;;;;;7842242;28;20182;-53
2022/04/10 02:26:43;;;;;;;0.88;0.50;;;19.10;66.20;;;;;;7842063;28;20566;-55
2022/04/10 02:30:28;;;;;;;1.20;0.60;;;19.10;66.50;;;;;;7841928;28;20518;-53
2022/04/10 02:34:14;;;;;;;0.57;0.50;;;19.10;66.40;;;;;;7841947;28;20220;-55
2022/04/10 02:37:59;;;;;;;1.00;0.50;;;19.00;66.00;;;;;;7841898;28;20180;-53
2022/04/10 02:41:44;;;;;;;0.65;0.52;;;19.00;66.90;;;;;;7841523;28;20515;-55
2022/04/10 02:45:30;;;;;;;1.33;0.60;;;19.00;65.70;;;;;;7841385;28;20202;-54
2022/04/10 02:49:15;;;;;;;1.95;0.77;;;19.00;65.80;;;;;;7841538;28;20178;-52
2022/04/10 02:53:01;;;;;;;0.50;0.50;;;19.00;66.20;;;;;;7841362;28;20209;-53
2022/04/10 02:56:46;;;;;;;0.73;0.50;;;19.00;65.70;;;;;;7841324;28;20791;-53
2022/04/10 03:00:32;;;;;;;0.40;0.40;;;18.90;65.50;;;;;;7840939;28;20178;-51
2022/04/10 03:04:17;;;;;;;0.45;0.45;;;18.90;65.20;;;;;;7841121;28;20608;-54
2022/04/10 03:08:03;;;;;;;2.13;0.65;;;18.90;65.70;;;;;;7841063;28;20189;-53
2022/04/10 03:11:49;;;;;;;1.27;0.40;;;18.90;65.70;;;;;;7840569;28;20182;-52
2022/04/10 03:15:35;;;;;;;1.75;1.00;;;18.90;65.70;;;;;;7840563;28;20281;-53
2022/04/10 03:19:20;;;;;;;0.60;0.57;;;18.90;65.20;;;;;;7840311;28;20227;-53
2022/04/10 03:23:08;;;;;;;1.00;0.70;;;18.80;64.90;;;;;;7840493;28;20732;-53
2022/04/10 03:26:54;;;;;;;0.95;0.70;;;18.80;65.10;;;;;;7840284;28;20206;-53
2022/04/10 03:30:39;;;;;;;1.58;0.55;;;18.80;65.10;;;;;;7839901;28;20258;-55
2022/04/10 03:34:25;;;;;;;0.80;0.43;;;18.80;65.20;;;;;;7840088;28;20284;-53
2022/04/10 03:38:10;;;;;;;0.90;0.70;;;18.80;65.20;;;;;;7840061;28;20173;-52
2022/04/10 03:41:56;;;;;;;1.13;0.70;;;18.80;65.10;;;;;;7839596;28;20179;-55
2022/04/10 03:45:44;;;;;;;1.42;0.55;;;18.70;65.40;;;;;;7839646;28;20194;-53
2022/04/10 03:49:29;;;;;;;1.63;0.55;;;18.70;65.80;;;;;;7839588;28;20182;-54
2022/04/10 03:53:15;;;;;;;1.48;0.80;;;18.70;65.50;;;;;;7839343;28;20225;-53
2022/04/10 03:57:01;;;;;;;2.55;0.80;;;18.70;65.30;;;;;;7838642;28;20554;-53
2022/04/10 04:00:47;;;;;;;0.55;0.40;;;18.70;65.20;;;;;;7839580;28;20276;-50
2022/04/10 04:04:36;;;;;;;2.30;0.50;;;18.70;66.30;;;;;;7839353;28;20228;-52
2022/04/10 04:08:22;;;;;;;1.63;0.52;;;18.70;65.50;;;;;;7839135;28;20169;-50
2022/04/10 04:12:08;;;;;;;0.98;0.60;;;18.70;65.20;;;;;;7839195;28;20194;-53
2022/04/10 04:15:53;;;;;;;4.10;0.80;;;18.60;65.20;;;;;;7838750;28;20565;-53
2022/04/10 04:19:39;;;;;;;1.85;0.63;;;18.60;65.20;;;;;;7838609;28;20259;-52
2022/04/10 04:23:24;;;;;;;2.53;0.70;;;18.60;65.80;;;;;;7838733;28;20257;-50
2022/04/10 04:27:10;;;;;;;1.33;0.60;;;18.60;65.60;;;;;;7838606;28;20209;-52
2022/04/10 04:30:56;;;;;;;1.77;0.65;;;18.60;65.70;;;;;;7838379;28;20229;-55
2022/04/10 04:34:41;;;;;;;1.70;0.70;;;18.60;65.50;;;;;;7838398;28;20753;-50
2022/04/10 04:38:27;;;;;;;3.15;0.77;;;18.60;65.20;;;;;;7838418;28;20189;-50
2022/04/10 04:42:13;;;;;;;0.80;0.55;;;18.60;65.20;;;;;;7838525;28;20178;-50
2022/04/10 04:45:58;;;;;;;1.02;0.60;;;18.60;65.20;;;;;;7853883;28;20213;-55
2022/04/10 04:49:43;;;;;;;1.20;0.70;;;18.70;65.10;;;;;;7855065;28;20204;-49
2022/04/10 04:53:29;;;;;;;1.60;0.55;;;18.70;65.10;;;;;;7855462;28;20220;-50
2022/04/10 04:57:14;;;;;;;5.20;0.60;;;18.60;65.50;;;;;;7842023;28;20568;-54
2022/04/10 05:01:00;;;;;;;1.50;0.70;;;18.60;65.40;;;;;;7837926;28;20186;-49
2022/04/10 05:04:45;;;;;;;3.08;0.90;;;18.60;65.60;;;;;;7838630;28;20214;-50
2022/04/10 05:08:31;;;;;;;1.67;0.55;;;18.60;65.20;;;;;;7839376;28;20200;-53
2022/04/10 05:12:16;;;;;;;0.80;0.50;;;18.60;65.00;;;;;;7844107;28;20201;-49
2022/04/10 05:16:03;;;;;;;3.65;0.63;;;18.60;65.00;;;;;;7857344;28;20726;-50
2022/04/10 05:19:48;;;;;;;1.05;0.50;;;18.60;64.80;;;;;;7869405;28;20270;-50
2022/04/10 05:23:34;;;;;;;1.25;0.68;;;18.70;65.60;;;;;;7874841;28;20188;-53
2022/04/10 05:27:19;;;;;;;1.27;0.63;;;18.60;65.70;;;;;;7875384;28;20173;-52
2022/04/10 05:31:05;;;;;;;2.67;0.70;;;18.60;65.10;;;;;;7874588;28;20174;-49
2022/04/10 05:34:50;;;;;;;2.83;0.80;;;18.60;64.80;;;;;;7874490;28;20219;-52
2022/04/10 05:38:35;;;;;;;3.65;0.90;;;18.60;64.60;;;;;;7878517;28;20185;-53
2022/04/10 05:42:21;;;;;;;1.52;0.77;;;18.60;65.00;;;;;;7867498;28;20285;-49
2022/04/10 05:46:06;;;;;;;1.40;0.80;;;18.60;65.00;;;;;;7843238;28;20198;-50
2022/04/10 05:49:52;;;;;;;6.35;0.80;;;18.60;64.90;;;;;;7843177;28;20181;-51
2022/04/10 05:53:37;;;;;;;2.92;1.02;;;18.60;64.80;;;;;;7844801;28;20214;-49
2022/04/10 05:57:23;;;;;;;6.72;0.98;;;18.50;65.00;;;;;;7843179;28;20548;-50
2022/04/10 06:01:08;;;;;;;5.18;0.93;;;18.50;64.90;;;;;;7842629;28;20186;-51
2022/04/10 06:04:55;;;;;;;7.82;1.00;;;18.50;64.90;;;;;;7852460;28;20200;-51
2022/04/10 06:08:41;;;;;;;6.32;1.02;;;18.50;65.90;;;;;;7869982;28;20197;-50
2022/04/10 06:12:28;;;;;;;12.60;1.17;;;18.50;66.00;;;;;;7842805;28;20240;-51
2022/04/10 06:16:14;;;;;;;5.30;0.90;;;18.40;66.40;;;;;;7860122;28;20193;-54
2022/04/10 06:19:59;;;;;;;5.15;0.93;;;18.40;65.50;;;;;;7870863;28;20223;-51
2022/04/10 06:23:45;;;;;;;7.82;1.10;;;18.40;65.00;;;;;;7842397;28;20284;-51
2022/04/10 06:27:30;;;;;;;6.95;1.00;;;18.40;65.40;;;;;;7842528;28;20182;-54
2022/04/10 06:31:16;;;;;;;3.90;0.80;;;18.40;65.10;;;;;;7847036;28;20294;-50
2022/04/10 06:35:01;;;;;;;7.15;1.10;;;18.40;65.20;;;;;;7868986;28;20216;-50
2022/04/10 06:38:49;;;;;;;5.63;1.00;;;18.40;65.00;;;;;;7873011;28;20230;-54
2022/04/10 06:42:34;;;;;;;10.05;0.98;;;18.40;65.70;;;;;;7859642;28;20182;-50
2022/04/10 06:46:20;;;;;;;9.15;1.30;;;18.30;65.70;;;;;;7841973;28;20284;-52
2022/04/10 06:50:06;;;;;;;2.95;1.10;;;18.30;65.00;;;;;;7841440;28;20182;-55
2022/04/10 06:53:51;;;;;;;11.23;1.17;;;18.30;65.50;;;;;;7841499;28;20217;-50
2022/04/10 06:57:37;;;;;;;6.10;1.42;;;18.30;65.10;;;;;;7841624;28;20182;-50
2022/04/10 07:01:22;;;;;;;7.20;1.20;;;18.30;65.20;;;;;;7858696;28;20311;-52
2022/04/10 07:05:08;;;;;;;6.45;1.23;;;18.30;65.00;;;;;;7872112;28;20201;-52
2022/04/10 07:08:53;;;;;;;9.18;1.00;;;18.30;65.10;;;;;;7871833;28;20215;-50
2022/04/10 07:12:39;;;;;;;4.00;1.00;;;18.20;65.20;;;;;;7854699;28;20213;-50
2022/04/10 07:16:24;;;;;;;22.92;4.15;;;18.20;65.90;;;;;;7862636;28;20254;-53
2022/04/10 07:20:10;;;;;;;35.13;4.95;;;18.20;65.20;;;;;;7871191;28;20183;-50
2022/04/10 07:23:56;;;;;;;47.00;6.22;;;18.20;65.00;;;;;;7871408;28;20198;-50
2022/04/10 07:27:41;;;;;;;53.58;6.82;;;18.20;65.20;;;;;;7871266;28;20185;-52
2022/04/10 07:31:26;;;;;;;45.33;6.82;;;18.20;65.20;;;;;;7870253;28;20186;-51
2022/04/10 07:35:12;;;;;;;34.97;5.88;;;18.20;65.20;;;;;;7868073;28;20273;-50
2022/04/10 07:38:58;;;;;;;22.80;5.22;;;18.10;65.30;;;;;;7870315;28;20184;-52
2022/04/10 07:42:44;;;;;;;13.85;3.75;;;18.10;65.40;;;;;;7881622;28;20187;-50
2022/04/10 07:50:33;;;;;;;30.08;4.57;;;18.10;65.10;;;;;;7869993;28;20264;-50
2022/04/10 07:54:19;;;;;;;16.23;3.90;;;18.10;65.30;;;;;;7870303;28;20254;-52
2022/04/10 07:58:05;;;;;;;14.85;3.72;;;18.10;65.00;;;;;;7870700;28;20539;-52
2022/04/10 08:01:50;;;;;;;18.77;3.47;;;18.10;65.20;;;;;;7882084;28;20268;-49
2022/04/10 08:05:36;;;;;;;17.13;3.30;;;18.10;65.20;;;;;;7883991;28;20203;-49
2022/04/10 08:09:21;;;;;;;10.88;3.17;;;18.10;65.50;;;;;;7836972;28;20680;-52
2022/04/10 08:13:07;;;;;;;12.32;3.45;;;18.10;65.00;;;;;;7839553;28;20604;-52
2022/04/10 08:16:52;;;;;;;14.70;3.35;;;18.00;65.10;;;;;;7877581;28;20268;-50
2022/04/10 08:20:38;;;;;;;8.70;3.45;;;18.00;64.90;;;;;;7869148;28;20227;-52
2022/04/10 08:24:23;;;;;;;17.10;3.58;;;18.00;65.10;;;;;;7870053;28;20259;-53
2022/04/10 08:28:09;;;;;;;17.75;3.00;;;18.00;66.20;;;;;;7870056;28;20269;-52
2022/04/10 08:31:55;;;;;;;19.75;3.15;;;18.00;66.40;;;;;;7868374;28;20269;-53
2022/04/10 08:35:40;;;;;;;36.40;4.40;;;18.00;65.80;;;;;;7869373;28;20232;-54
2022/04/10 08:39:26;;;;;;;26.77;4.18;;;18.00;65.50;;;;;;7869116;28;20659;-52
